sensor_id;sensor_type;location;lat;lon;timestamp;pressure;altitude;pressure_sealevel;temperature;humidity
31775;BME280;66189;49.000;11.640;2023-04-21T00:00:09;95592.59;;;5.32;84.60
31775;BME280;66189;49.000;11.640;2023-04-21T00:02:09;95593.81;;;5.35;84.22
31775;BME280;66189;49.000;11.640;2023-04-21T00:04:10;95583.72;;;5.28;84.50
31775;BME280;66189;49.000;11.640;2023-04-21T00:06:12;95587.69;;;5.22;85.03
31775;BME280;66189;49.000;11.640;2023-04-21T00:08:13;95589.13;;;5.20;84.70
31775;BME280;66189;49.000;11.640;2023-04-21T00:10:13;95586.00;;;5.18;83.90
31775;BME280;66189;49.000;11.640;2023-04-21T00:12:13;95584.00;;;5.14;83.36
31775;BME280;66189;49.000;11.640;2023-04-21T00:14:14;95578.91;;;5.09;84.72
31775;BME280;66189;49.000;11.640;2023-04-21T00:16:14;95576.66;;;5.11;84.98
31775;BME280;66189;49.000;11.640;2023-04-21T00:18:14;95570.56;;;5.11;85.86
31775;BME280;66189;49.000;11.640;2023-04-21T00:20:15;95568.00;;;5.14;86.45
31775;BME280;66189;49.000;11.640;2023-04-21T00:22:15;95563.81;;;5.13;86.98
31775;BME280;66189;49.000;11.640;2023-04-21T00:24:16;95562.00;;;5.18;87.38
31775;BME280;66189;49.000;11.640;2023-04-21T00:26:16;95564.91;;;5.25;87.42
31775;BME280;66189;49.000;11.640;2023-04-21T00:28:20;95562.72;;;5.27;87.47
31775;BME280;66189;49.000;11.640;2023-04-21T00:30:21;95560.03;;;5.27;87.42
31775;BME280;66189;49.000;11.640;2023-04-21T00:32:21;95560.91;;;5.31;87.15
31775;BME280;66189;49.000;11.640;2023-04-21T00:34:21;95562.16;;;5.33;87.14
31775;BME280;66189;49.000;11.640;2023-04-21T00:36:22;95562.25;;;5.37;86.88
31775;BME280;66189;49.000;11.640;2023-04-21T00:38:23;95565.47;;;5.30;87.21
31775;BME280;66189;49.000;11.640;2023-04-21T00:40:24;95565.81;;;5.29;87.28
31775;BME280;66189;49.000;11.640;2023-04-21T00:42:24;95559.91;;;5.23;87.11
31775;BME280;66189;49.000;11.640;2023-04-21T00:44:25;95564.47;;;5.23;87.03
31775;BME280;66189;49.000;11.640;2023-04-21T00:46:25;95573.22;;;5.11;86.74
31775;BME280;66189;49.000;11.640;2023-04-21T00:48:26;95571.34;;;5.11;87.58
31775;BME280;66189;49.000;11.640;2023-04-21T00:50:27;95570.78;;;5.06;87.06
31775;BME280;66189;49.000;11.640;2023-04-21T00:52:27;95568.44;;;5.04;87.45
31775;BME280;66189;49.000;11.640;2023-04-21T00:54:28;95573.66;;;5.01;87.43
31775;BME280;66189;49.000;11.640;2023-04-21T00:56:30;95572.31;;;4.94;87.41
31775;BME280;66189;49.000;11.640;2023-04-21T00:58:32;95580.19;;;4.91;88.17
31775;BME280;66189;49.000;11.640;2023-04-21T01:00:33;95567.53;;;5.00;88.99
31775;BME280;66189;49.000;11.640;2023-04-21T01:02:36;95575.78;;;5.07;88.82
31775;BME280;66189;49.000;11.640;2023-04-21T01:04:38;95567.13;;;5.10;88.58
31775;BME280;66189;49.000;11.640;2023-04-21T01:06:39;95568.47;;;5.16;88.42
31775;BME280;66189;49.000;11.640;2023-04-21T01:08:40;95572.00;;;5.21;88.46
31775;BME280;66189;49.000;11.640;2023-04-21T01:10:41;95565.56;;;5.22;88.27
31775;BME280;66189;49.000;11.640;2023-04-21T01:12:42;95570.25;;;5.25;88.50
31775;BME280;66189;49.000;11.640;2023-04-21T01:14:43;95568.81;;;5.27;88.13
31775;BME280;66189;49.000;11.640;2023-04-21T01:16:44;95570.91;;;5.34;87.96
31775;BME280;66189;49.000;11.640;2023-04-21T01:18:46;95567.38;;;5.30;87.66
31775;BME280;66189;49.000;11.640;2023-04-21T01:20:46;95565.91;;;5.32;87.63
31775;BME280;66189;49.000;11.640;2023-04-21T01:22:49;95568.38;;;5.38;88.03
31775;BME280;66189;49.000;11.640;2023-04-21T01:24:51;95569.81;;;5.35;87.34
31775;BME280;66189;49.000;11.640;2023-04-21T01:26:51;95577.16;;;5.26;86.94
31775;BME280;66189;49.000;11.640;2023-04-21T01:28:51;95572.13;;;5.12;87.23
31775;BME280;66189;49.000;11.640;2023-04-21T01:30:55;95571.56;;;5.06;87.58
31775;BME280;66189;49.000;11.640;2023-04-21T01:32:55;95566.88;;;5.03;87.22
31775;BME280;66189;49.000;11.640;2023-04-21T01:34:59;95571.06;;;4.92;87.75
31775;BME280;66189;49.000;11.640;2023-04-21T01:37:00;95571.19;;;4.83;87.83
31775;BME280;66189;49.000;11.640;2023-04-21T01:39:00;95578.47;;;4.74;86.53
31775;BME280;66189;49.000;11.640;2023-04-21T01:41:03;95580.50;;;4.77;87.14
31775;BME280;66189;49.000;11.640;2023-04-21T01:43:03;95581.59;;;4.76;87.20
31775;BME280;66189;49.000;11.640;2023-04-21T01:45:04;95579.91;;;4.71;87.19
31775;BME280;66189;49.000;11.640;2023-04-21T01:47:05;95580.34;;;4.73;87.33
31775;BME280;66189;49.000;11.640;2023-04-21T01:49:06;95576.00;;;4.69;86.87
31775;BME280;66189;49.000;11.640;2023-04-21T01:51:06;95572.56;;;4.68;85.96
31775;BME280;66189;49.000;11.640;2023-04-21T01:53:07;95575.22;;;4.68;85.42
31775;BME280;66189;49.000;11.640;2023-04-21T01:55:08;95576.81;;;4.69;85.55
31775;BME280;66189;49.000;11.640;2023-04-21T01:57:09;95577.56;;;4.70;85.98
31775;BME280;66189;49.000;11.640;2023-04-21T01:59:09;95569.53;;;4.57;85.07
31775;BME280;66189;49.000;11.640;2023-04-21T02:01:09;95574.06;;;4.57;85.47
31775;BME280;66189;49.000;11.640;2023-04-21T02:03:10;95574.06;;;4.57;84.88
31775;BME280;66189;49.000;11.640;2023-04-21T02:05:11;95572.53;;;4.56;84.21
31775;BME280;66189;49.000;11.640;2023-04-21T02:07:11;95570.31;;;4.58;84.05
31775;BME280;66189;49.000;11.640;2023-04-21T02:09:14;95568.75;;;4.57;84.20
31775;BME280;66189;49.000;11.640;2023-04-21T02:11:14;95562.66;;;4.56;85.11
31775;BME280;66189;49.000;11.640;2023-04-21T02:13:15;95571.88;;;4.59;85.11
31775;BME280;66189;49.000;11.640;2023-04-21T02:15:15;95560.41;;;4.58;85.24
31775;BME280;66189;49.000;11.640;2023-04-21T02:17:16;95558.09;;;4.57;84.86
31775;BME280;66189;49.000;11.640;2023-04-21T02:19:16;95559.41;;;4.51;85.88
31775;BME280;66189;49.000;11.640;2023-04-21T02:21:17;95558.75;;;4.54;86.79
31775;BME280;66189;49.000;11.640;2023-04-21T02:23:17;95560.53;;;4.50;87.66
31775;BME280;66189;49.000;11.640;2023-04-21T02:25:17;95563.19;;;4.50;87.11
31775;BME280;66189;49.000;11.640;2023-04-21T02:27:19;95551.19;;;4.43;87.00
31775;BME280;66189;49.000;11.640;2023-04-21T02:29:19;95557.50;;;4.39;87.51
31775;BME280;66189;49.000;11.640;2023-04-21T02:31:19;95557.59;;;4.42;87.91
31775;BME280;66189;49.000;11.640;2023-04-21T02:33:21;95554.50;;;4.40;87.04
31775;BME280;66189;49.000;11.640;2023-04-21T02:35:22;95560.66;;;4.32;85.78
31775;BME280;66189;49.000;11.640;2023-04-21T02:37:24;95559.88;;;4.32;86.29
31775;BME280;66189;49.000;11.640;2023-04-21T02:39:26;95558.13;;;4.36;86.27
31775;BME280;66189;49.000;11.640;2023-04-21T02:41:27;95559.25;;;4.35;86.23
31775;BME280;66189;49.000;11.640;2023-04-21T02:43:27;95552.34;;;4.34;86.24
31775;BME280;66189;49.000;11.640;2023-04-21T02:45:28;95547.34;;;4.32;85.75
31775;BME280;66189;49.000;11.640;2023-04-21T02:47:30;95547.16;;;4.37;86.09
31775;BME280;66189;49.000;11.640;2023-04-21T02:49:30;95545.28;;;4.38;85.59
31775;BME280;66189;49.000;11.640;2023-04-21T02:51:31;95550.00;;;4.32;86.01
31775;BME280;66189;49.000;11.640;2023-04-21T02:53:31;95552.66;;;4.32;86.06
31775;BME280;66189;49.000;11.640;2023-04-21T02:55:32;95554.69;;;4.35;85.90
31775;BME280;66189;49.000;11.640;2023-04-21T02:57:32;95552.81;;;4.36;85.84
31775;BME280;66189;49.000;11.640;2023-04-21T02:59:33;95565.72;;;4.25;85.74
31775;BME280;66189;49.000;11.640;2023-04-21T03:01:33;95573.97;;;4.11;86.15
31775;BME280;66189;49.000;11.640;2023-04-21T03:03:34;95576.91;;;3.97;86.86
31775;BME280;66189;49.000;11.640;2023-04-21T03:05:35;95579.09;;;3.95;87.17
31775;BME280;66189;49.000;11.640;2023-04-21T03:07:35;95574.88;;;3.94;88.00
31775;BME280;66189;49.000;11.640;2023-04-21T03:09:38;95572.88;;;3.91;87.95
31775;BME280;66189;49.000;11.640;2023-04-21T03:11:38;95573.47;;;3.97;88.00
31775;BME280;66189;49.000;11.640;2023-04-21T03:13:38;95570.47;;;3.98;87.33
31775;BME280;66189;49.000;11.640;2023-04-21T03:15:39;95577.22;;;3.96;86.33
31775;BME280;66189;49.000;11.640;2023-04-21T03:17:42;95579.69;;;4.01;87.08
31775;BME280;66189;49.000;11.640;2023-04-21T03:19:42;95577.16;;;4.04;87.73
31775;BME280;66189;49.000;11.640;2023-04-21T03:21:43;95572.28;;;4.06;87.36
31775;BME280;66189;49.000;11.640;2023-04-21T03:23:43;95570.75;;;4.05;87.41
31775;BME280;66189;49.000;11.640;2023-04-21T03:25:44;95579.56;;;3.97;86.39
31775;BME280;66189;49.000;11.640;2023-04-21T03:27:44;95573.91;;;3.99;86.81
31775;BME280;66189;49.000;11.640;2023-04-21T03:29:45;95578.47;;;3.98;86.30
31775;BME280;66189;49.000;11.640;2023-04-21T03:31:45;95577.81;;;4.01;86.72
31775;BME280;66189;49.000;11.640;2023-04-21T03:33:45;95581.72;;;4.04;87.17
31775;BME280;66189;49.000;11.640;2023-04-21T03:35:45;95578.41;;;4.07;88.02
31775;BME280;66189;49.000;11.640;2023-04-21T03:37:46;95578.97;;;4.13;87.76
31775;BME280;66189;49.000;11.640;2023-04-21T03:39:48;95574.91;;;4.15;87.92
31775;BME280;66189;49.000;11.640;2023-04-21T03:41:49;95576.59;;;4.20;88.31
31775;BME280;66189;49.000;11.640;2023-04-21T03:43:50;95569.03;;;4.22;88.94
31775;BME280;66189;49.000;11.640;2023-04-21T03:45:53;95563.84;;;4.25;88.12
31775;BME280;66189;49.000;11.640;2023-04-21T03:47:53;95571.38;;;4.23;87.67
31775;BME280;66189;49.000;11.640;2023-04-21T03:49:54;95566.03;;;4.23;87.42
31775;BME280;66189;49.000;11.640;2023-04-21T03:51:55;95566.25;;;4.18;86.39
31775;BME280;66189;49.000;11.640;2023-04-21T03:53:55;95566.03;;;4.23;87.17
31775;BME280;66189;49.000;11.640;2023-04-21T03:55:55;95566.38;;;4.22;87.52
31775;BME280;66189;49.000;11.640;2023-04-21T03:57:56;95567.50;;;4.21;87.80
31775;BME280;66189;49.000;11.640;2023-04-21T03:59:56;95578.28;;;4.24;87.77
31775;BME280;66189;49.000;11.640;2023-04-21T04:01:56;95571.38;;;4.23;87.98
31775;BME280;66189;49.000;11.640;2023-04-21T04:03:56;95578.25;;;4.03;87.05
31775;BME280;66189;49.000;11.640;2023-04-21T04:05:57;95584.06;;;4.05;86.84
31775;BME280;66189;49.000;11.640;2023-04-21T04:07:57;95579.69;;;4.01;87.04
31775;BME280;66189;49.000;11.640;2023-04-21T04:09:57;95588.50;;;3.92;86.50
31775;BME280;66189;49.000;11.640;2023-04-21T04:11:58;95586.88;;;4.00;86.65
31775;BME280;66189;49.000;11.640;2023-04-21T04:13:58;95593.31;;;3.99;86.16
31775;BME280;66189;49.000;11.640;2023-04-21T04:15:58;95585.09;;;3.92;86.18
31775;BME280;66189;49.000;11.640;2023-04-21T04:17:59;95593.72;;;3.89;86.08
31775;BME280;66189;49.000;11.640;2023-04-21T04:19:59;95589.69;;;3.83;86.14
31775;BME280;66189;49.000;11.640;2023-04-21T04:22:00;95594.06;;;3.79;86.52
31775;BME280;66189;49.000;11.640;2023-04-21T04:24:01;95580.56;;;3.84;87.17
31775;BME280;66189;49.000;11.640;2023-04-21T04:26:01;95578.56;;;3.81;87.90
31775;BME280;66189;49.000;11.640;2023-04-21T04:28:04;95577.34;;;3.78;88.19
31775;BME280;66189;49.000;11.640;2023-04-21T04:30:06;95576.81;;;3.85;88.38
31775;BME280;66189;49.000;11.640;2023-04-21T04:32:07;95577.91;;;3.84;87.99
31775;BME280;66189;49.000;11.640;2023-04-21T04:34:09;95566.69;;;3.78;88.93
31775;BME280;66189;49.000;11.640;2023-04-21T04:36:10;95578.50;;;3.89;90.26
31775;BME280;66189;49.000;11.640;2023-04-21T04:38:13;95567.81;;;3.98;90.69
31775;BME280;66189;49.000;11.640;2023-04-21T04:40:16;95558.16;;;4.15;91.08
31775;BME280;66189;49.000;11.640;2023-04-21T04:42:16;95552.63;;;4.20;90.95
31775;BME280;66189;49.000;11.640;2023-04-21T04:44:19;95558.66;;;4.29;90.88
31775;BME280;66189;49.000;11.640;2023-04-21T04:46:19;95560.00;;;4.35;90.55
31775;BME280;66189;49.000;11.640;2023-04-21T04:48:19;95556.84;;;4.42;90.67
31775;BME280;66189;49.000;11.640;2023-04-21T04:50:20;95562.50;;;4.40;90.69
31775;BME280;66189;49.000;11.640;2023-04-21T04:52:20;95566.03;;;4.44;90.60
31775;BME280;66189;49.000;11.640;2023-04-21T04:54:20;95560.06;;;4.48;90.62
31775;BME280;66189;49.000;11.640;2023-04-21T04:56:21;95561.41;;;4.54;90.54
31775;BME280;66189;49.000;11.640;2023-04-21T04:58:22;95566.56;;;4.59;90.33
31775;BME280;66189;49.000;11.640;2023-04-21T05:00:23;95564.25;;;4.70;90.56
31775;BME280;66189;49.000;11.640;2023-04-21T05:02:23;95565.06;;;4.83;90.43
31775;BME280;66189;49.000;11.640;2023-04-21T05:04:24;95557.88;;;4.95;90.25
31775;BME280;66189;49.000;11.640;2023-04-21T05:06:24;95553.66;;;5.07;90.23
31775;BME280;66189;49.000;11.640;2023-04-21T05:08:25;95561.81;;;5.35;89.38
31775;BME280;66189;49.000;11.640;2023-04-21T05:10:25;95563.38;;;5.61;89.23
31775;BME280;66189;49.000;11.640;2023-04-21T05:12:25;95569.13;;;5.75;88.45
31775;BME280;66189;49.000;11.640;2023-04-21T05:14:26;95568.00;;;5.88;88.79
31775;BME280;66189;49.000;11.640;2023-04-21T05:16:26;95566.91;;;6.02;87.52
31775;BME280;66189;49.000;11.640;2023-04-21T05:18:27;95566.22;;;6.17;86.81
31775;BME280;66189;49.000;11.640;2023-04-21T05:20:27;95571.16;;;6.31;86.11
31775;BME280;66189;49.000;11.640;2023-04-21T05:22:27;95584.53;;;6.31;86.72
31775;BME280;66189;49.000;11.640;2023-04-21T05:24:27;95579.25;;;6.47;86.12
31775;BME280;66189;49.000;11.640;2023-04-21T05:26:28;95584.69;;;6.51;86.20
31775;BME280;66189;49.000;11.640;2023-04-21T05:28:28;95581.63;;;6.65;85.48
31775;BME280;66189;49.000;11.640;2023-04-21T05:30:30;95591.41;;;6.73;86.07
31775;BME280;66189;49.000;11.640;2023-04-21T05:32:30;95587.03;;;6.81;85.01
31775;BME280;66189;49.000;11.640;2023-04-21T05:34:30;95591.25;;;6.82;83.39
31775;BME280;66189;49.000;11.640;2023-04-21T05:36:30;95596.97;;;6.96;84.05
31775;BME280;66189;49.000;11.640;2023-04-21T05:38:31;95592.31;;;6.93;83.49
31775;BME280;66189;49.000;11.640;2023-04-21T05:40:31;95602.06;;;7.01;84.37
31775;BME280;66189;49.000;11.640;2023-04-21T05:42:32;95599.94;;;7.07;84.36
31775;BME280;66189;49.000;11.640;2023-04-21T05:44:32;95605.53;;;7.02;83.71
31775;BME280;66189;49.000;11.640;2023-04-21T05:46:32;95600.53;;;7.00;83.48
31775;BME280;66189;49.000;11.640;2023-04-21T05:48:33;95603.03;;;7.09;84.28
31775;BME280;66189;49.000;11.640;2023-04-21T05:50:34;95600.19;;;7.18;83.51
31775;BME280;66189;49.000;11.640;2023-04-21T05:52:34;95603.06;;;7.25;83.28
31775;BME280;66189;49.000;11.640;2023-04-21T05:54:36;95604.28;;;7.27;83.20
31775;BME280;66189;49.000;11.640;2023-04-21T05:56:37;95603.16;;;7.44;83.96
31775;BME280;66189;49.000;11.640;2023-04-21T05:58:37;95600.84;;;7.43;82.88
31775;BME280;66189;49.000;11.640;2023-04-21T06:00:37;95597.72;;;7.41;82.95
31775;BME280;66189;49.000;11.640;2023-04-21T06:02:38;95598.34;;;7.50;82.59
31775;BME280;66189;49.000;11.640;2023-04-21T06:04:38;95603.78;;;7.54;82.34
31775;BME280;66189;49.000;11.640;2023-04-21T06:06:38;95602.38;;;7.60;81.97
31775;BME280;66189;49.000;11.640;2023-04-21T06:08:39;95601.06;;;7.70;82.18
31775;BME280;66189;49.000;11.640;2023-04-21T06:10:39;95601.94;;;7.90;82.02
31775;BME280;66189;49.000;11.640;2023-04-21T06:12:40;95599.59;;;7.88;81.38
31775;BME280;66189;49.000;11.640;2023-04-21T06:14:40;95602.63;;;7.87;81.56
31775;BME280;66189;49.000;11.640;2023-04-21T06:16:40;95602.16;;;8.00;81.47
31775;BME280;66189;49.000;11.640;2023-04-21T06:18:41;95602.41;;;7.95;80.71
31775;BME280;66189;49.000;11.640;2023-04-21T06:20:41;95607.00;;;7.95;80.94
31775;BME280;66189;49.000;11.640;2023-04-21T06:22:41;95603.44;;;8.07;79.84
31775;BME280;66189;49.000;11.640;2023-04-21T06:24:42;95603.97;;;7.96;80.02
31775;BME280;66189;49.000;11.640;2023-04-21T06:26:42;95608.28;;;8.01;80.34
31775;BME280;66189;49.000;11.640;2023-04-21T06:28:42;95601.50;;;7.88;79.77
31775;BME280;66189;49.000;11.640;2023-04-21T06:30:42;95612.47;;;7.82;80.52
31775;BME280;66189;49.000;11.640;2023-04-21T06:32:44;95604.78;;;7.81;79.92
31775;BME280;66189;49.000;11.640;2023-04-21T06:34:46;95601.25;;;7.93;80.21
31775;BME280;66189;49.000;11.640;2023-04-21T06:36:46;95598.28;;;7.98;80.33
31775;BME280;66189;49.000;11.640;2023-04-21T06:38:47;95598.50;;;8.09;79.33
31775;BME280;66189;49.000;11.640;2023-04-21T06:40:47;95595.94;;;8.12;79.46
31775;BME280;66189;49.000;11.640;2023-04-21T06:42:48;95594.47;;;8.34;79.58
31775;BME280;66189;49.000;11.640;2023-04-21T06:44:48;95596.28;;;8.46;78.71
31775;BME280;66189;49.000;11.640;2023-04-21T06:46:48;95596.41;;;8.53;78.66
31775;BME280;66189;49.000;11.640;2023-04-21T06:48:49;95599.72;;;8.66;78.77
31775;BME280;66189;49.000;11.640;2023-04-21T06:50:49;95596.28;;;8.85;78.36
31775;BME280;66189;49.000;11.640;2023-04-21T06:52:49;95599.91;;;8.97;77.48
31775;BME280;66189;49.000;11.640;2023-04-21T06:54:50;95604.22;;;9.01;76.85
31775;BME280;66189;49.000;11.640;2023-04-21T06:56:50;95600.91;;;9.08;76.03
31775;BME280;66189;49.000;11.640;2023-04-21T06:58:50;95610.97;;;9.15;74.10
31775;BME280;66189;49.000;11.640;2023-04-21T07:00:50;95599.94;;;9.20;76.78
31775;BME280;66189;49.000;11.640;2023-04-21T07:02:51;95608.00;;;9.20;75.83
31775;BME280;66189;49.000;11.640;2023-04-21T07:04:51;95605.44;;;9.27;75.19
31775;BME280;66189;49.000;11.640;2023-04-21T07:06:51;95599.50;;;9.37;75.84
31775;BME280;66189;49.000;11.640;2023-04-21T07:08:51;95607.38;;;9.50;73.41
31775;BME280;66189;49.000;11.640;2023-04-21T07:10:52;95604.19;;;9.67;72.65
31775;BME280;66189;49.000;11.640;2023-04-21T07:12:52;95600.44;;;9.72;71.05
31775;BME280;66189;49.000;11.640;2023-04-21T07:14:53;95609.38;;;9.80;70.72
31775;BME280;66189;49.000;11.640;2023-04-21T07:16:53;95605.63;;;9.84;71.68
31775;BME280;66189;49.000;11.640;2023-04-21T07:18:56;95607.88;;;10.09;71.94
31775;BME280;66189;49.000;11.640;2023-04-21T07:20:56;95605.88;;;10.02;69.12
31775;BME280;66189;49.000;11.640;2023-04-21T07:22:59;95610.69;;;10.16;70.23
31775;BME280;66189;49.000;11.640;2023-04-21T07:24:59;95616.00;;;10.12;68.69
31775;BME280;66189;49.000;11.640;2023-04-21T07:26:59;95616.31;;;10.07;68.71
31775;BME280;66189;49.000;11.640;2023-04-21T07:29:01;95613.66;;;10.11;66.88
31775;BME280;66189;49.000;11.640;2023-04-21T07:31:01;95616.41;;;10.14;66.68
31775;BME280;66189;49.000;11.640;2023-04-21T07:33:02;95613.50;;;10.27;68.96
31775;BME280;66189;49.000;11.640;2023-04-21T07:35:02;95604.53;;;10.42;68.42
31775;BME280;66189;49.000;11.640;2023-04-21T07:37:02;95613.44;;;10.46;67.50
31775;BME280;66189;49.000;11.640;2023-04-21T07:39:03;95613.53;;;10.54;69.08
31775;BME280;66189;49.000;11.640;2023-04-21T07:41:03;95609.50;;;10.71;67.03
31775;BME280;66189;49.000;11.640;2023-04-21T07:43:04;95616.16;;;10.84;67.17
31775;BME280;66189;49.000;11.640;2023-04-21T07:45:04;95608.59;;;10.93;64.06
31775;BME280;66189;49.000;11.640;2023-04-21T07:47:04;95612.88;;;10.98;64.55
31775;BME280;66189;49.000;11.640;2023-04-21T07:49:05;95617.97;;;11.07;65.81
31775;BME280;66189;49.000;11.640;2023-04-21T07:51:05;95605.91;;;10.93;63.56
31775;BME280;66189;49.000;11.640;2023-04-21T07:53:05;95613.75;;;11.09;65.40
31775;BME280;66189;49.000;11.640;2023-04-21T07:55:06;95607.72;;;11.19;63.22
31775;BME280;66189;49.000;11.640;2023-04-21T07:57:06;95607.19;;;11.07;61.71
31775;BME280;66189;49.000;11.640;2023-04-21T07:59:07;95606.97;;;11.23;62.87
31775;BME280;66189;49.000;11.640;2023-04-21T08:01:07;95606.72;;;11.38;63.98
31775;BME280;66189;49.000;11.640;2023-04-21T08:03:07;95606.25;;;11.29;64.71
31775;BME280;66189;49.000;11.640;2023-04-21T08:05:08;95607.84;;;11.34;64.53
31775;BME280;66189;49.000;11.640;2023-04-21T08:07:08;95614.59;;;11.54;64.53
31775;BME280;66189;49.000;11.640;2023-04-21T08:09:08;95619.72;;;11.70;63.95
31775;BME280;66189;49.000;11.640;2023-04-21T08:11:09;95612.78;;;11.69;64.10
31775;BME280;66189;49.000;11.640;2023-04-21T08:13:09;95615.31;;;11.93;63.67
31775;BME280;66189;49.000;11.640;2023-04-21T08:15:10;95620.75;;;12.03;62.45
31775;BME280;66189;49.000;11.640;2023-04-21T08:17:11;95614.63;;;12.03;60.27
31775;BME280;66189;49.000;11.640;2023-04-21T08:19:11;95608.53;;;12.17;63.15
31775;BME280;66189;49.000;11.640;2023-04-21T08:21:11;95606.19;;;12.12;61.54
31775;BME280;66189;49.000;11.640;2023-04-21T08:23:13;95601.31;;;12.35;62.18
31775;BME280;66189;49.000;11.640;2023-04-21T08:25:13;95601.28;;;12.28;60.78
31775;BME280;66189;49.000;11.640;2023-04-21T08:27:14;95606.22;;;12.19;60.10
31775;BME280;66189;49.000;11.640;2023-04-21T08:29:14;95609.06;;;12.40;62.60
31775;BME280;66189;49.000;11.640;2023-04-21T08:31:15;95611.34;;;12.38;59.71
31775;BME280;66189;49.000;11.640;2023-04-21T08:33:16;95617.88;;;12.37;58.70
31775;BME280;66189;49.000;11.640;2023-04-21T08:35:16;95612.78;;;12.18;57.86
31775;BME280;66189;49.000;11.640;2023-04-21T08:37:17;95612.47;;;12.30;61.43
31775;BME280;66189;49.000;11.640;2023-04-21T08:39:18;95611.78;;;12.44;59.73
31775;BME280;66189;49.000;11.640;2023-04-21T08:41:18;95608.53;;;12.17;58.93
31775;BME280;66189;49.000;11.640;2023-04-21T08:43:19;95607.34;;;12.14;59.66
31775;BME280;66189;49.000;11.640;2023-04-21T08:45:19;95614.28;;;12.12;57.59
31775;BME280;66189;49.000;11.640;2023-04-21T08:47:20;95610.56;;;12.34;58.92
31775;BME280;66189;49.000;11.640;2023-04-21T08:49:21;95614.13;;;12.53;60.02
31775;BME280;66189;49.000;11.640;2023-04-21T08:51:23;95614.84;;;12.46;57.97
31775;BME280;66189;49.000;11.640;2023-04-21T08:53:26;95608.00;;;12.63;59.20
31775;BME280;66189;49.000;11.640;2023-04-21T08:55:29;95606.13;;;12.78;59.46
31775;BME280;66189;49.000;11.640;2023-04-21T08:57:30;95611.22;;;12.97;60.21
31775;BME280;66189;49.000;11.640;2023-04-21T08:59:31;95607.78;;;13.04;58.27
31775;BME280;66189;49.000;11.640;2023-04-21T09:01:31;95624.69;;;12.90;56.56
31775;BME280;66189;49.000;11.640;2023-04-21T09:03:31;95613.47;;;12.81;57.15
31775;BME280;66189;49.000;11.640;2023-04-21T09:05:32;95612.00;;;13.05;59.54
31775;BME280;66189;49.000;11.640;2023-04-21T09:07:33;95609.69;;;13.00;58.56
31775;BME280;66189;49.000;11.640;2023-04-21T09:09:50;95606.94;;;12.82;56.64
31775;BME280;66189;49.000;11.640;2023-04-21T09:11:56;95606.59;;;12.94;54.93
31775;BME280;66189;49.000;11.640;2023-04-21T09:14:00;95613.97;;;13.19;56.46
31775;BME280;66189;49.000;11.640;2023-04-21T09:16:03;95610.91;;;13.24;57.63
31775;BME280;66189;49.000;11.640;2023-04-21T09:18:04;95614.06;;;13.55;57.88
31775;BME280;66189;49.000;11.640;2023-04-21T09:20:13;95620.63;;;13.50;57.62
31775;BME280;66189;49.000;11.640;2023-04-21T09:22:15;95616.38;;;13.49;56.19
31775;BME280;66189;49.000;11.640;2023-04-21T09:24:16;95619.06;;;13.49;55.24
31775;BME280;66189;49.000;11.640;2023-04-21T09:26:17;95612.16;;;13.48;57.46
31775;BME280;66189;49.000;11.640;2023-04-21T09:28:17;95612.16;;;13.74;57.17
31775;BME280;66189;49.000;11.640;2023-04-21T09:30:18;95614.47;;;13.75;55.58
31775;BME280;66189;49.000;11.640;2023-04-21T09:32:19;95614.47;;;13.50;54.17
31775;BME280;66189;49.000;11.640;2023-04-21T09:34:21;95614.47;;;13.61;55.50
31775;BME280;66189;49.000;11.640;2023-04-21T09:36:24;95614.84;;;13.38;55.75
31775;BME280;66189;49.000;11.640;2023-04-21T09:38:25;95609.44;;;13.45;55.06
31775;BME280;66189;49.000;11.640;2023-04-21T09:40:25;95616.41;;;13.71;57.22
31775;BME280;66189;49.000;11.640;2023-04-21T09:42:29;95613.69;;;14.03;55.39
31775;BME280;66189;49.000;11.640;2023-04-21T09:44:30;95614.06;;;14.16;55.00
31775;BME280;66189;49.000;11.640;2023-04-21T09:46:33;95608.94;;;14.58;54.73
31775;BME280;66189;49.000;11.640;2023-04-21T09:48:33;95612.81;;;14.64;57.50
31775;BME280;66189;49.000;11.640;2023-04-21T09:50:34;95612.75;;;14.79;53.68
31775;BME280;66189;49.000;11.640;2023-04-21T09:52:35;95619.97;;;15.14;55.94
31775;BME280;66189;49.000;11.640;2023-04-21T09:54:37;95622.31;;;15.08;51.32
31775;BME280;66189;49.000;11.640;2023-04-21T09:56:42;95620.06;;;14.96;53.46
31775;BME280;66189;49.000;11.640;2023-04-21T09:58:46;95616.59;;;14.92;51.64
31775;BME280;66189;49.000;11.640;2023-04-21T10:00:47;95615.75;;;15.06;50.28
31775;BME280;66189;49.000;11.640;2023-04-21T10:02:48;95613.53;;;14.83;51.05
31775;BME280;66189;49.000;11.640;2023-04-21T10:04:51;95606.59;;;14.74;52.39
31775;BME280;66189;49.000;11.640;2023-04-21T10:06:51;95607.28;;;15.00;53.69
31775;BME280;66189;49.000;11.640;2023-04-21T10:08:52;95602.97;;;15.06;51.46
31775;BME280;66189;49.000;11.640;2023-04-21T10:10:55;95603.31;;;15.12;54.19
31775;BME280;66189;49.000;11.640;2023-04-21T10:12:56;95598.06;;;15.54;53.68
31775;BME280;66189;49.000;11.640;2023-04-21T10:14:56;95601.59;;;15.43;48.36
31775;BME280;66189;49.000;11.640;2023-04-21T10:17:02;95609.75;;;15.36;50.49
31775;BME280;66189;49.000;11.640;2023-04-21T10:19:21;95592.06;;;15.24;49.67
31775;BME280;66189;49.000;11.640;2023-04-21T10:21:22;95589.16;;;15.50;50.31
31775;BME280;66189;49.000;11.640;2023-04-21T10:23:30;95595.63;;;15.67;48.28
31775;BME280;66189;49.000;11.640;2023-04-21T10:25:31;95593.25;;;15.72;51.72
31775;BME280;66189;49.000;11.640;2023-04-21T10:27:35;95593.84;;;15.98;48.98
31775;BME280;66189;49.000;11.640;2023-04-21T10:29:35;95586.81;;;16.04;51.25
31775;BME280;66189;49.000;11.640;2023-04-21T10:31:36;95585.09;;;15.76;47.14
31775;BME280;66189;49.000;11.640;2023-04-21T10:33:38;95584.09;;;16.04;49.55
31775;BME280;66189;49.000;11.640;2023-04-21T10:37:57;95574.84;;;15.98;46.67
31775;BME280;66189;49.000;11.640;2023-04-21T10:39:58;95577.81;;;16.14;50.09